< < Back
Terminal Aerodrome Forecast


Current Version              Previous Versions:   1  2  3  4  5  6  7  8  9  

Terminal Aerodrome Forecast

590
FTUS44 KBMX 012300
TAFBHM
TAF
KBHM 012325Z 0200/0224 06003KT P6SM SCT040 BKN150
     FM020600 09003KT P6SM BKN100
      TEMPO 0210/0214 BKN012
     FM021400 05004KT P6SM VCSH OVC015
     FM021800 03004KT P6SM VCTS BKN025CB=

Latest METAR

683
SAUS70 KWBC 020556
MTRBHM
METAR KBHM 020553Z 00000KT 10SM SCT150 24/20 A3006 RMK AO2 SLP170
T02440200 10289 20228 403110200 50004


USA.gov is the U.S. government's official web portal to all federal, state and local government web resources and services.